Time;durP1;ratioP1;P1;durP2;ratioP2;P2;SDS_P1;SDS_P2;PMS_P1;PMS_P2;Temp;Humidity;BMP_temperature;BMP_pressure;BME280_temperature;BME280_humidity;BME280_pressure;Samples;Min_cycle;Max_cycle;Signal;HPM_P1;HPM_P2
2023/03/24 00:01:51;;;;;;;1.85;1.30;;;;;;;;;;5077566;28;20035;-79
2023/03/24 00:04:17;;;;;;;1.75;1.35;;;;;;;;;;5061766;28;20032;-79
2023/03/24 00:06:43;;;;;;;3.83;1.40;;;;;;;;;;5078331;28;20026;-79
2023/03/24 00:09:09;;;;;;;3.25;1.60;;;;;;;;;;5078157;28;20036;-79
2023/03/24 00:11:34;;;;;;;5.53;1.63;;;;;;;;;;5061603;28;20093;-79
2023/03/24 00:14:03;;;;;;;2.45;1.30;;;;;;;;;;5096383;28;20032;-79
2023/03/24 00:16:29;;;;;;;2.17;1.30;;;;;;;;;;5078040;28;20434;-79
2023/03/24 00:18:55;;;;;;;2.45;1.30;;;;;;;;;;5078353;28;20054;-80
2023/03/24 00:21:23;;;;;;;2.45;1.40;;;;;;;;;;5095007;28;20024;-78
2023/03/24 00:23:49;;;;;;;2.03;1.20;;;;;;;;;;5078341;28;20024;-80
2023/03/24 00:26:15;;;;;;;2.17;1.27;;;;;;;;;;5078070;28;20100;-80
2023/03/24 00:28:46;;;;;;;3.63;1.40;;;;;;;;;;5077925;28;20036;-78
2023/03/24 00:31:16;;;;;;;1.50;1.38;;;;;;;;;;5094786;28;20020;-81
2023/03/24 00:33:42;;;;;;;2.58;1.30;;;;;;;;;;5078464;28;20078;-80
2023/03/24 00:36:10;;;;;;;1.67;1.00;;;;;;;;;;5060804;28;20040;-80
2023/03/24 00:38:37;;;;;;;2.50;1.25;;;;;;;;;;5078052;28;20024;-79
2023/03/24 00:41:05;;;;;;;2.38;1.45;;;;;;;;;;5078151;28;20507;-79
2023/03/24 00:43:31;;;;;;;2.38;1.27;;;;;;;;;;5077850;28;20028;-79
2023/03/24 00:46:00;;;;;;;2.22;1.10;;;;;;;;;;5077614;28;20140;-79
2023/03/24 00:48:27;;;;;;;1.40;1.10;;;;;;;;;;5077583;28;20020;-79
2023/03/24 00:50:52;;;;;;;2.35;1.15;;;;;;;;;;5095673;28;20056;-79
2023/03/24 00:53:18;;;;;;;2.88;1.10;;;;;;;;;;5077487;28;20055;-79
2023/03/24 00:55:46;;;;;;;3.33;1.40;;;;;;;;;;5077286;28;20039;-79
2023/03/24 00:58:17;;;;;;;2.13;1.30;;;;;;;;;;5094362;28;20091;-79
2023/03/24 01:00:47;;;;;;;1.33;1.10;;;;;;;;;;5077572;28;20024;-79
2023/03/24 01:03:12;;;;;;;4.35;1.52;;;;;;;;;;5077267;28;20107;-79
2023/03/24 01:05:40;;;;;;;2.50;1.40;;;;;;;;;;5060479;28;20075;-79
2023/03/24 01:08:06;;;;;;;1.95;1.10;;;;;;;;;;5077650;28;20012;-78
2023/03/24 01:10:34;;;;;;;1.05;0.93;;;;;;;;;;5095272;28;20036;-79
2023/03/24 01:13:01;;;;;;;1.83;1.20;;;;;;;;;;5092834;28;20024;-79
2023/03/24 01:15:32;;;;;;;2.13;1.20;;;;;;;;;;5077454;28;20062;-79
2023/03/24 01:18:01;;;;;;;1.80;1.35;;;;;;;;;;5076872;28;20470;-79
2023/03/24 01:20:31;;;;;;;1.17;1.08;;;;;;;;;;5093748;28;20024;-79
2023/03/24 01:22:58;;;;;;;2.35;1.40;;;;;;;;;;5078030;28;20200;-79
2023/03/24 01:25:24;;;;;;;1.83;1.00;;;;;;;;;;5077166;28;20051;-79
2023/03/24 01:27:51;;;;;;;3.67;1.35;;;;;;;;;;5094231;28;20035;-79
2023/03/24 01:30:18;;;;;;;1.48;1.20;;;;;;;;;;5076949;28;20036;-79
2023/03/24 01:32:44;;;;;;;2.45;1.30;;;;;;;;;;5060508;28;20115;-79
2023/03/24 01:35:10;;;;;;;3.20;1.23;;;;;;;;;;5095304;28;20078;-79
2023/03/24 01:37:36;;;;;;;2.00;1.20;;;;;;;;;;5076909;28;20031;-79
2023/03/24 01:40:07;;;;;;;1.92;1.30;;;;;;;;;;5076972;28;20020;-78
2023/03/24 01:42:33;;;;;;;1.52;1.10;;;;;;;;;;5093421;28;20028;-79
2023/03/24 01:45:00;;;;;;;3.20;1.30;;;;;;;;;;5076456;28;20034;-78
2023/03/24 01:47:26;;;;;;;2.78;1.50;;;;;;;;;;5094521;28;20028;-79
2023/03/24 01:49:53;;;;;;;1.85;1.40;;;;;;;;;;5076479;28;20032;-79
2023/03/24 01:52:30;;;;;;;1.70;1.17;;;;;;;;;;5076456;28;20115;-79
2023/03/24 01:55:00;;;;;;;1.48;1.15;;;;;;;;;;5094751;28;20427;-79
2023/03/24 01:57:29;;;;;;;2.15;1.30;;;;;;;;;;5059577;28;20020;-79
2023/03/24 01:59:57;;;;;;;2.13;1.30;;;;;;;;;;5076309;28;20020;-79
2023/03/24 02:02:23;;;;;;;2.63;1.33;;;;;;;;;;5076558;28;20028;-80
2023/03/24 02:04:58;;;;;;;1.23;1.10;;;;;;;;;;5076334;28;20450;-80
2023/03/24 02:07:37;;;;;;;3.13;1.40;;;;;;;;;;5076129;28;20020;-80
2023/03/24 02:10:08;;;;;;;1.60;1.30;;;;;;;;;;5094451;28;20020;-80
2023/03/24 02:12:35;;;;;;;1.45;1.20;;;;;;;;;;5075982;28;20023;-79
2023/03/24 02:15:02;;;;;;;1.80;1.10;;;;;;;;;;5093959;28;20049;-80
2023/03/24 02:17:48;;;;;;;2.97;1.20;;;;;;;;;;5075820;28;20024;-80
2023/03/24 02:20:38;;;;;;;1.95;1.20;;;;;;;;;;5093845;28;20098;-79
2023/03/24 02:23:25;;;;;;;1.60;1.30;;;;;;;;;;5093541;28;20039;-80
2023/03/24 02:26:02;;;;;;;2.00;1.30;;;;;;;;;;5093690;28;20496;-80
2023/03/24 02:28:34;;;;;;;2.25;1.48;;;;;;;;;;5093890;28;20032;-80
2023/03/24 02:31:15;;;;;;;2.05;1.40;;;;;;;;;;5093086;28;20505;-80
2023/03/24 02:34:18;;;;;;;3.05;1.17;;;;;;;;;;5092682;28;20458;-80
2023/03/24 02:37:09;;;;;;;2.15;1.20;;;;;;;;;;5093622;28;20437;-80
2023/03/24 02:39:44;;;;;;;3.40;1.30;;;;;;;;;;5075414;28;20039;-78
2023/03/24 02:42:22;;;;;;;2.13;1.30;;;;;;;;;;5092448;28;20387;-80
2023/03/24 02:45:23;;;;;;;3.80;1.40;;;;;;;;;;5075406;28;20039;-79
2023/03/24 02:48:21;;;;;;;2.38;1.38;;;;;;;;;;5075478;28;20012;-80
2023/03/24 02:50:53;;;;;;;1.98;1.25;;;;;;;;;;5077765;28;20109;-80
2023/03/24 02:53:24;;;;;;;3.63;1.30;;;;;;;;;;5093488;28;20073;-80
2023/03/24 02:56:20;;;;;;;1.88;1.33;;;;;;;;;;5092438;28;20058;-80
2023/03/24 02:59:06;;;;;;;2.10;1.20;;;;;;;;;;5055504;28;20063;-80
2023/03/24 03:01:57;;;;;;;1.98;1.38;;;;;;;;;;5075107;28;20027;-80
2023/03/24 03:04:32;;;;;;;1.52;1.10;;;;;;;;;;5093630;28;20044;-80
2023/03/24 03:07:01;;;;;;;1.52;1.20;;;;;;;;;;5075657;28;20028;-80
2023/03/24 03:09:27;;;;;;;1.10;1.00;;;;;;;;;;5075197;28;20390;-79
2023/03/24 03:11:55;;;;;;;2.00;1.10;;;;;;;;;;5075072;28;20032;-79
2023/03/24 03:14:33;;;;;;;2.15;1.00;;;;;;;;;;5075367;28;20028;-79
2023/03/24 03:17:03;;;;;;;1.77;0.95;;;;;;;;;;5092203;28;20024;-79
2023/03/24 03:19:33;;;;;;;2.03;1.10;;;;;;;;;;5075152;28;20144;-79
2023/03/24 03:21:59;;;;;;;1.55;1.00;;;;;;;;;;5075160;28;20016;-79
2023/03/24 03:24:42;;;;;;;1.25;0.90;;;;;;;;;;5058432;28;20042;-79
2023/03/24 03:27:28;;;;;;;2.63;1.13;;;;;;;;;;5091738;28;20559;-79
2023/03/24 03:29:59;;;;;;;1.40;0.90;;;;;;;;;;5075284;28;20035;-79
2023/03/24 03:32:28;;;;;;;1.50;0.88;;;;;;;;;;5075130;28;20021;-79
2023/03/24 03:35:21;;;;;;;2.58;1.05;;;;;;;;;;5093280;28;20044;-79
2023/03/24 03:38:07;;;;;;;0.90;0.90;;;;;;;;;;5033462;28;20040;-79
2023/03/24 03:40:37;;;;;;;1.63;0.88;;;;;;;;;;5079001;28;20039;-80
2023/03/24 03:43:03;;;;;;;2.22;1.00;;;;;;;;;;5096166;28;20030;-79
2023/03/24 03:45:29;;;;;;;2.03;1.30;;;;;;;;;;5078701;28;20028;-79
2023/03/24 03:47:54;;;;;;;2.42;1.00;;;;;;;;;;5095643;28;20024;-79
2023/03/24 03:50:20;;;;;;;3.13;1.27;;;;;;;;;;5096802;28;20535;-78
2023/03/24 03:52:46;;;;;;;2.00;1.00;;;;;;;;;;5079094;28;20024;-79
2023/03/24 03:55:12;;;;;;;3.75;0.93;;;;;;;;;;5079002;28;20462;-79
2023/03/24 03:57:38;;;;;;;3.20;1.30;;;;;;;;;;5078614;28;20388;-78
2023/03/24 04:00:07;;;;;;;4.15;1.30;;;;;;;;;;5061844;28;20070;-79
2023/03/24 04:03:12;;;;;;;4.60;1.13;;;;;;;;;;5096667;28;20028;-78
2023/03/24 04:06:05;;;;;;;3.15;1.02;;;;;;;;;;5096809;28;20044;-78
2023/03/24 04:09:00;;;;;;;6.03;1.40;;;;;;;;;;5058621;28;20125;-78
2023/03/24 04:11:47;;;;;;;3.22;1.00;;;;;;;;;;5065906;28;20044;-79
2023/03/24 04:14:49;;;;;;;7.00;1.10;;;;;;;;;;5096364;28;20021;-78
2023/03/24 04:17:26;;;;;;;2.17;0.90;;;;;;;;;;5078519;28;20388;-78
2023/03/24 04:20:10;;;;;;;2.63;1.02;;;;;;;;;;5096316;28;20052;-79
2023/03/24 04:22:44;;;;;;;2.05;1.10;;;;;;;;;;5078573;28;20051;-78
2023/03/24 04:25:19;;;;;;;2.92;1.23;;;;;;;;;;5077900;28;20085;-79
2023/03/24 04:27:50;;;;;;;1.67;1.10;;;;;;;;;;5078091;28;20429;-79
2023/03/24 04:30:24;;;;;;;2.08;1.05;;;;;;;;;;5077908;28;20028;-79
2023/03/24 04:32:59;;;;;;;2.08;0.90;;;;;;;;;;5077957;28;20082;-79
2023/03/24 04:35:30;;;;;;;2.78;1.00;;;;;;;;;;5077999;28;20046;-79
2023/03/24 04:38:17;;;;;;;1.80;1.00;;;;;;;;;;5096096;28;20471;-80
2023/03/24 04:40:44;;;;;;;2.42;1.17;;;;;;;;;;5077907;28;20073;-80
2023/03/24 04:43:13;;;;;;;3.20;1.08;;;;;;;;;;5077904;28;20020;-80
2023/03/24 04:45:38;;;;;;;5.25;1.23;;;;;;;;;;5060975;28;20165;-80
2023/03/24 04:48:07;;;;;;;2.35;1.00;;;;;;;;;;5077376;28;20107;-80
2023/03/24 04:50:36;;;;;;;5.68;1.67;;;;;;;;;;5077807;28;20139;-79
2023/03/24 04:53:03;;;;;;;3.20;1.20;;;;;;;;;;5077866;28;20023;-79
2023/03/24 04:55:48;;;;;;;3.08;1.20;;;;;;;;;;5094399;28;20027;-79
2023/03/24 04:58:13;;;;;;;;;;;;;;;;;;5077829;28;20023;-79
2023/03/24 05:00:40;;;;;;;2.00;0.98;;;;;;;;;;5077176;28;19912;-79
2023/03/24 05:03:05;;;;;;;3.67;1.35;;;;;;;;;;5061095;28;20058;-78
2023/03/24 05:05:31;;;;;;;5.40;1.33;;;;;;;;;;5077624;28;20060;-79
2023/03/24 05:07:57;;;;;;;3.08;1.40;;;;;;;;;;5095049;28;20421;-79
2023/03/24 05:10:22;;;;;;;3.25;1.10;;;;;;;;;;5095875;28;20040;-79
2023/03/24 05:12:49;;;;;;;3.33;1.27;;;;;;;;;;5095808;28;20032;-79
2023/03/24 05:15:14;;;;;;;3.75;1.17;;;;;;;;;;5060877;28;20046;-79
2023/03/24 05:17:40;;;;;;;4.25;1.42;;;;;;;;;;5078515;28;20474;-79
2023/03/24 05:20:13;;;;;;;4.22;1.52;;;;;;;;;;5095693;28;20055;-78
2023/03/24 05:22:39;;;;;;;15.07;1.75;;;;;;;;;;5061790;28;20390;-78
2023/03/24 05:25:05;;;;;;;3.38;1.38;;;;;;;;;;5094432;28;20032;-79
2023/03/24 05:27:31;;;;;;;4.13;1.35;;;;;;;;;;5060633;28;20030;-79
2023/03/24 05:29:56;;;;;;;5.53;1.80;;;;;;;;;;5094189;28;20398;-79
2023/03/24 05:32:21;;;;;;;6.93;1.50;;;;;;;;;;5095944;28;20028;-78
2023/03/24 05:34:47;;;;;;;9.48;1.75;;;;;;;;;;5094269;28;20048;-78
2023/03/24 05:37:15;;;;;;;4.57;1.80;;;;;;;;;;5077059;28;20483;-78
2023/03/24 05:39:41;;;;;;;6.88;1.58;;;;;;;;;;5095436;28;20031;-78
2023/03/24 05:42:07;;;;;;;10.00;1.70;;;;;;;;;;5077014;28;20212;-78
2023/03/24 05:44:32;;;;;;;4.05;1.50;;;;;;;;;;5094281;28;20066;-78
2023/03/24 05:46:57;;;;;;;4.95;1.70;;;;;;;;;;5077204;28;20429;-79
2023/03/24 05:49:23;;;;;;;5.45;1.45;;;;;;;;;;5076856;28;20032;-78
2023/03/24 05:51:48;;;;;;;9.13;1.90;;;;;;;;;;5094078;28;20024;-78
2023/03/24 05:54:14;;;;;;;9.52;1.85;;;;;;;;;;5077610;28;20032;-79
2023/03/24 05:56:40;;;;;;;10.98;2.90;;;;;;;;;;5095059;28;20117;-79
2023/03/24 05:59:05;;;;;;;7.90;1.60;;;;;;;;;;5093388;28;20028;-78
2023/03/24 06:01:30;;;;;;;5.88;1.70;;;;;;;;;;5094783;28;20036;-80
2023/03/24 06:03:56;;;;;;;7.65;2.15;;;;;;;;;;5076661;28;20031;-79
2023/03/24 06:06:21;;;;;;;8.30;1.77;;;;;;;;;;5076424;28;20024;-79
2023/03/24 06:08:48;;;;;;;7.00;2.38;;;;;;;;;;5076280;28;20375;-79
2023/03/24 06:11:14;;;;;;;9.90;1.90;;;;;;;;;;5094457;28;20043;-79
2023/03/24 06:13:39;;;;;;;7.15;2.05;;;;;;;;;;5059697;28;20028;-79
2023/03/24 06:16:06;;;;;;;12.80;2.10;;;;;;;;;;5076202;28;20035;-79
2023/03/24 06:18:32;;;;;;;7.35;1.80;;;;;;;;;;5076579;28;20020;-79
2023/03/24 06:20:59;;;;;;;5.35;1.90;;;;;;;;;;5093162;28;20088;-79
2023/03/24 06:23:26;;;;;;;5.80;1.90;;;;;;;;;;5059553;28;20115;-79
2023/03/24 06:25:53;;;;;;;7.95;2.58;;;;;;;;;;5076041;28;20028;-78
2023/03/24 06:28:18;;;;;;;8.95;1.40;;;;;;;;;;5094404;28;20467;-79
2023/03/24 06:30:45;;;;;;;5.40;1.88;;;;;;;;;;5059223;28;20043;-79
2023/03/24 06:33:12;;;;;;;7.63;2.17;;;;;;;;;;5059543;28;20514;-79
2023/03/24 06:35:38;;;;;;;6.90;2.05;;;;;;;;;;5093791;28;20072;-79
2023/03/24 06:38:03;;;;;;;9.82;2.35;;;;;;;;;;5093986;28;20024;-79
2023/03/24 06:40:30;;;;;;;10.20;2.88;;;;;;;;;;5094040;28;20085;-79
2023/03/24 06:42:55;;;;;;;8.48;2.35;;;;;;;;;;5076263;28;20028;-79
2023/03/24 06:45:20;;;;;;;8.55;1.90;;;;;;;;;;5092735;28;20470;-79
2023/03/24 06:47:46;;;;;;;5.57;1.95;;;;;;;;;;5092577;28;20390;-79
2023/03/24 06:50:11;;;;;;;8.13;2.50;;;;;;;;;;5075793;28;20046;-79
2023/03/24 06:52:37;;;;;;;5.65;1.88;;;;;;;;;;5075699;28;20073;-79
2023/03/24 06:55:02;;;;;;;5.93;1.92;;;;;;;;;;5059128;28;20100;-79
2023/03/24 06:57:28;;;;;;;6.05;2.00;;;;;;;;;;5075689;28;20390;-79
2023/03/24 06:59:54;;;;;;;5.35;2.13;;;;;;;;;;5075572;28;20028;-79
2023/03/24 07:02:20;;;;;;;5.28;1.80;;;;;;;;;;5075698;28;20035;-79
2023/03/24 07:04:46;;;;;;;6.72;1.90;;;;;;;;;;5075860;28;20085;-79
2023/03/24 07:07:11;;;;;;;8.20;2.25;;;;;;;;;;5094188;28;20021;-79
2023/03/24 07:09:37;;;;;;;10.02;1.90;;;;;;;;;;5058711;28;20118;-78
2023/03/24 07:12:05;;;;;;;7.35;2.15;;;;;;;;;;5075823;28;20028;-79
2023/03/24 07:14:30;;;;;;;6.43;1.65;;;;;;;;;;5075596;28;20046;-79
2023/03/24 07:16:56;;;;;;;5.88;2.20;;;;;;;;;;5075752;28;20020;-80
2023/03/24 07:19:21;;;;;;;11.00;2.17;;;;;;;;;;5092619;28;20024;-80
2023/03/24 07:21:48;;;;;;;3.53;1.83;;;;;;;;;;5093750;28;20047;-79
2023/03/24 07:24:15;;;;;;;7.70;2.20;;;;;;;;;;5075783;28;20081;-79
2023/03/24 07:26:40;;;;;;;6.10;1.88;;;;;;;;;;5093428;28;20101;-79
2023/03/24 07:29:06;;;;;;;7.70;1.98;;;;;;;;;;5093473;28;20470;-79
2023/03/24 07:31:36;;;;;;;8.50;2.22;;;;;;;;;;5093158;28;20047;-79
2023/03/24 07:34:02;;;;;;;22.95;2.92;;;;;;;;;;5074868;28;20056;-78
2023/03/24 07:36:27;;;;;;;8.07;2.13;;;;;;;;;;5074067;28;20438;-80
2023/03/24 07:38:53;;;;;;;12.85;3.35;;;;;;;;;;5091326;28;20028;-78
2023/03/24 07:41:18;;;;;;;9.65;2.13;;;;;;;;;;5074308;28;20097;-79
2023/03/24 07:43:44;;;;;;;6.15;2.28;;;;;;;;;;5074302;28;20390;-78
2023/03/24 07:46:09;;;;;;;8.40;2.28;;;;;;;;;;5092747;28;20063;-78
2023/03/24 07:48:35;;;;;;;9.07;1.88;;;;;;;;;;5092171;28;20500;-78
2023/03/24 07:51:00;;;;;;;5.97;1.90;;;;;;;;;;5092781;28;20043;-78
2023/03/24 07:53:27;;;;;;;7.05;2.08;;;;;;;;;;5091536;28;20464;-78
2023/03/24 07:55:52;;;;;;;5.60;1.98;;;;;;;;;;5074290;28;20028;-78
2023/03/24 07:58:17;;;;;;;11.25;2.25;;;;;;;;;;5092228;28;20031;-78
2023/03/24 08:00:43;;;;;;;7.25;2.10;;;;;;;;;;5092297;28;20390;-78
2023/03/24 08:03:13;;;;;;;9.98;2.15;;;;;;;;;;5092154;28;20027;-78
2023/03/24 08:05:40;;;;;;;8.13;1.85;;;;;;;;;;5090915;28;20024;-79
2023/03/24 08:08:05;;;;;;;6.47;1.98;;;;;;;;;;5074227;28;20471;-79
2023/03/24 08:10:31;;;;;;;7.43;1.85;;;;;;;;;;5074244;28;20069;-78
2023/03/24 08:12:57;;;;;;;5.57;1.88;;;;;;;;;;5074156;28;20483;-79
2023/03/24 08:15:24;;;;;;;10.40;2.67;;;;;;;;;;5090951;28;20024;-78
2023/03/24 08:17:50;;;;;;;7.07;1.80;;;;;;;;;;5074156;28;20493;-80
2023/03/24 08:20:17;;;;;;;7.60;1.92;;;;;;;;;;5074042;28;20050;-79
2023/03/24 08:22:48;;;;;;;6.45;2.28;;;;;;;;;;5078243;28;20020;-79
2023/03/24 08:25:14;;;;;;;6.80;1.95;;;;;;;;;;5062368;28;20107;-81
2023/03/24 08:27:42;;;;;;;6.47;1.98;;;;;;;;;;5094902;28;20116;-81
2023/03/24 08:30:12;;;;;;;8.75;2.10;;;;;;;;;;5095904;28;20035;-79
2023/03/24 08:32:42;;;;;;;8.05;2.25;;;;;;;;;;5078143;28;20030;-79
2023/03/24 08:35:11;;;;;;;6.15;1.90;;;;;;;;;;5091680;28;20114;-80
2023/03/24 08:37:36;;;;;;;5.70;2.15;;;;;;;;;;5094767;28;20038;-78
2023/03/24 08:40:04;;;;;;;5.75;2.10;;;;;;;;;;5111686;28;20467;-79
2023/03/24 08:42:29;;;;;;;5.28;1.90;;;;;;;;;;5094641;28;20023;-80
2023/03/24 08:44:55;;;;;;;6.65;1.88;;;;;;;;;;5094817;28;20120;-80
2023/03/24 08:47:20;;;;;;;4.57;2.03;;;;;;;;;;5111424;28;20032;-80
2023/03/24 08:49:45;;;;;;;6.30;1.92;;;;;;;;;;5096260;28;20070;-79
2023/03/24 08:52:11;;;;;;;4.03;1.70;;;;;;;;;;5094443;28;20126;-80
2023/03/24 08:54:36;;;;;;;6.80;2.10;;;;;;;;;;5094994;28;20059;-78
2023/03/24 08:57:02;;;;;;;3.75;1.70;;;;;;;;;;5095038;28;20054;-78
2023/03/24 08:59:27;;;;;;;4.85;1.77;;;;;;;;;;5094944;28;20123;-78
2023/03/24 09:01:52;;;;;;;6.05;2.38;;;;;;;;;;5094641;28;20043;-78
2023/03/24 09:04:18;;;;;;;6.35;1.80;;;;;;;;;;5111724;28;20048;-78
2023/03/24 09:06:43;;;;;;;4.95;2.08;;;;;;;;;;5096169;28;20035;-78
2023/03/24 09:09:09;;;;;;;6.85;2.20;;;;;;;;;;5095609;28;20038;-78
2023/03/24 09:11:34;;;;;;;5.32;2.00;;;;;;;;;;5095764;28;20093;-78
2023/03/24 09:14:00;;;;;;;13.48;1.90;;;;;;;;;;5111169;28;20028;-78
2023/03/24 09:16:25;;;;;;;5.32;1.60;;;;;;;;;;5111275;28;20024;-78
2023/03/24 09:18:51;;;;;;;5.53;1.73;;;;;;;;;;5096500;28;20031;-77
2023/03/24 09:21:16;;;;;;;6.03;1.98;;;;;;;;;;5112699;28;20078;-79
2023/03/24 09:23:41;;;;;;;8.10;1.85;;;;;;;;;;5112030;28;20035;-79
2023/03/24 09:26:07;;;;;;;9.65;2.30;;;;;;;;;;5111177;28;20038;-81
2023/03/24 09:28:33;;;;;;;4.43;1.77;;;;;;;;;;5094064;28;20031;-83
2023/03/24 09:31:00;;;;;;;7.82;2.05;;;;;;;;;;5094583;28;20426;-78
2023/03/24 09:33:28;;;;;;;5.43;1.55;;;;;;;;;;5094391;28;20099;-79
2023/03/24 09:35:58;;;;;;;5.40;1.70;;;;;;;;;;5093998;28;20387;-81
2023/03/24 09:38:24;;;;;;;7.97;2.00;;;;;;;;;;5111267;28;20031;-80
2023/03/24 09:40:54;;;;;;;12.25;1.92;;;;;;;;;;5093975;28;20032;-79
2023/03/24 09:43:41;;;;;;;8.68;2.03;;;;;;;;;;5110774;28;20028;-80
2023/03/24 09:46:13;;;;;;;5.78;1.95;;;;;;;;;;5095041;28;20444;-80
2023/03/24 09:48:41;;;;;;;6.80;2.00;;;;;;;;;;5110878;28;20016;-79
2023/03/24 09:51:10;;;;;;;6.20;1.88;;;;;;;;;;5094899;28;20016;-79
2023/03/24 09:53:51;;;;;;;7.22;1.80;;;;;;;;;;5094377;28;20059;-80
2023/03/24 09:56:18;;;;;;;11.77;2.25;;;;;;;;;;5094879;28;20074;-80
2023/03/24 09:58:47;;;;;;;8.50;2.08;;;;;;;;;;5112230;28;20020;-80
2023/03/24 10:01:14;;;;;;;6.43;1.88;;;;;;;;;;5110655;28;20028;-80
2023/03/24 10:03:41;;;;;;;10.48;2.60;;;;;;;;;;5111703;28;20097;-81
2023/03/24 10:06:24;;;;;;;11.32;2.45;;;;;;;;;;5093373;28;20039;-79
2023/03/24 10:08:58;;;;;;;9.30;2.17;;;;;;;;;;5110206;28;20097;-80
2023/03/24 10:11:42;;;;;;;5.13;1.63;;;;;;;;;;5093092;28;20028;-79
2023/03/24 10:14:19;;;;;;;6.65;1.60;;;;;;;;;;5094528;28;20024;-80
2023/03/24 10:16:48;;;;;;;11.32;2.38;;;;;;;;;;5094307;28;20069;-79
2023/03/24 10:19:22;;;;;;;4.75;1.80;;;;;;;;;;5094479;28;20024;-80
2023/03/24 10:22:12;;;;;;;5.68;2.10;;;;;;;;;;5094203;28;20474;-79
2023/03/24 10:25:03;;;;;;;6.13;2.15;;;;;;;;;;5092444;28;20899;-80
2023/03/24 10:27:36;;;;;;;6.80;1.67;;;;;;;;;;5092370;28;20078;-79
2023/03/24 10:30:23;;;;;;;8.40;1.85;;;;;;;;;;5088339;28;20023;-80
2023/03/24 10:32:48;;;;;;;4.03;1.50;;;;;;;;;;5075339;28;20527;-79
2023/03/24 10:35:34;;;;;;;2.58;1.48;;;;;;;;;;5091965;28;20048;-79
2023/03/24 10:38:03;;;;;;;6.07;1.88;;;;;;;;;;5075361;28;20139;-80
2023/03/24 10:40:31;;;;;;;5.28;1.67;;;;;;;;;;5091947;28;20028;-79
2023/03/24 10:42:57;;;;;;;5.63;2.03;;;;;;;;;;5075578;28;20385;-79
2023/03/24 10:45:28;;;;;;;5.40;1.80;;;;;;;;;;5075119;28;20047;-79
2023/03/24 10:47:57;;;;;;;4.38;1.80;;;;;;;;;;5075400;28;20047;-78
2023/03/24 10:50:32;;;;;;;4.95;1.80;;;;;;;;;;5092873;28;20028;-80
2023/03/24 10:52:57;;;;;;;5.43;2.10;;;;;;;;;;5092397;28;20078;-79
2023/03/24 10:55:30;;;;;;;4.15;1.73;;;;;;;;;;5075351;28;20066;-78
2023/03/24 10:57:57;;;;;;;5.35;1.80;;;;;;;;;;5092166;28;20094;-79
2023/03/24 11:00:30;;;;;;;8.07;2.15;;;;;;;;;;5092730;28;20531;-79
2023/03/24 11:03:07;;;;;;;3.92;1.60;;;;;;;;;;5075358;28;20026;-79
2023/03/24 11:05:34;;;;;;;6.20;2.17;;;;;;;;;;5075383;28;20047;-80
2023/03/24 11:08:24;;;;;;;6.00;2.22;;;;;;;;;;5075187;28;20028;-80
2023/03/24 11:10:50;;;;;;;6.00;1.58;;;;;;;;;;5074707;28;20060;-79
2023/03/24 11:13:18;;;;;;;5.97;1.88;;;;;;;;;;5093085;28;20052;-80
2023/03/24 11:16:11;;;;;;;6.28;1.92;;;;;;;;;;5075435;28;20393;-80
2023/03/24 11:18:37;;;;;;;7.53;1.88;;;;;;;;;;5058159;28;20474;-79
2023/03/24 11:21:04;;;;;;;9.77;2.60;;;;;;;;;;5058688;28;20032;-78
2023/03/24 11:23:49;;;;;;;15.77;2.40;;;;;;;;;;5075397;28;20032;-78
2023/03/24 11:26:20;;;;;;;7.35;2.55;;;;;;;;;;5058594;28;20026;-78
2023/03/24 11:29:06;;;;;;;8.85;2.20;;;;;;;;;;5075497;28;20027;-78
2023/03/24 11:31:37;;;;;;;6.82;2.47;;;;;;;;;;5075137;28;20054;-78
2023/03/24 11:34:13;;;;;;;8.05;2.15;;;;;;;;;;5075346;28;20426;-78
2023/03/24 11:36:46;;;;;;;8.20;2.20;;;;;;;;;;5075051;28;20052;-77
2023/03/24 11:39:19;;;;;;;5.43;2.53;;;;;;;;;;5075345;28;20044;-78
2023/03/24 11:42:09;;;;;;;4.93;1.83;;;;;;;;;;5093425;28;20035;-78
2023/03/24 11:44:37;;;;;;;6.35;2.00;;;;;;;;;;5093233;28;20020;-77
2023/03/24 11:47:23;;;;;;;6.38;1.80;;;;;;;;;;5093245;28;20020;-77
2023/03/24 11:50:10;;;;;;;5.35;1.92;;;;;;;;;;5075148;28;20028;-78
2023/03/24 11:52:50;;;;;;;5.88;1.75;;;;;;;;;;5093480;28;20130;-77
2023/03/24 11:55:18;;;;;;;5.88;2.13;;;;;;;;;;5074820;28;20069;-79
2023/03/24 11:58:08;;;;;;;8.05;1.75;;;;;;;;;;5094927;28;20020;-80
2023/03/24 12:00:41;;;;;;;8.18;1.80;;;;;;;;;;5078803;28;20117;-79
2023/03/24 12:03:46;;;;;;;7.57;1.95;;;;;;;;;;5078741;28;20102;-79
2023/03/24 12:06:23;;;;;;;5.53;1.80;;;;;;;;;;5095758;28;20036;-78
2023/03/24 12:09:13;;;;;;;5.00;1.70;;;;;;;;;;5061846;28;20030;-79
2023/03/24 12:12:12;;;;;;;8.02;2.10;;;;;;;;;;5078472;28;20024;-79
2023/03/24 12:14:43;;;;;;;5.78;1.90;;;;;;;;;;5097148;28;20467;-80
2023/03/24 12:17:09;;;;;;;6.38;1.63;;;;;;;;;;5078530;28;20077;-79
2023/03/24 12:19:47;;;;;;;3.53;1.65;;;;;;;;;;5078590;28;20070;-79
2023/03/24 12:22:28;;;;;;;3.40;1.30;;;;;;;;;;5061757;28;20028;-79
2023/03/24 12:25:24;;;;;;;8.65;1.50;;;;;;;;;;5078403;28;20020;-79
2023/03/24 12:28:03;;;;;;;4.53;2.00;;;;;;;;;;5096257;28;20020;-81
2023/03/24 12:30:56;;;;;;;5.15;1.70;;;;;;;;;;5096608;28;20084;-80
2023/03/24 12:33:58;;;;;;;6.55;1.70;;;;;;;;;;5096277;28;20032;-79
2023/03/24 12:36:30;;;;;;;4.05;1.50;;;;;;;;;;5028090;28;20050;-81
2023/03/24 12:39:08;;;;;;;4.18;1.52;;;;;;;;;;5096448;28;20099;-79
2023/03/24 12:41:43;;;;;;;4.68;1.40;;;;;;;;;;5096273;28;20024;-79
2023/03/24 12:44:20;;;;;;;5.78;1.83;;;;;;;;;;5077848;28;20024;-80
2023/03/24 12:46:57;;;;;;;3.72;1.60;;;;;;;;;;5096045;28;20024;-79
2023/03/24 12:49:29;;;;;;;4.97;1.55;;;;;;;;;;5077916;28;20034;-79
2023/03/24 12:51:54;;;;;;;3.85;1.55;;;;;;;;;;5077649;28;20032;-79
2023/03/24 12:54:36;;;;;;;4.75;1.55;;;;;;;;;;5077777;28;20497;-79
2023/03/24 12:57:08;;;;;;;4.80;1.73;;;;;;;;;;5077887;28;20020;-81
2023/03/24 12:59:38;;;;;;;4.88;1.50;;;;;;;;;;5077875;28;20474;-79
2023/03/24 13:02:24;;;;;;;3.22;1.45;;;;;;;;;;5077821;28;20473;-79
2023/03/24 13:04:52;;;;;;;4.95;1.85;;;;;;;;;;5060961;28;20439;-78
2023/03/24 13:07:24;;;;;;;8.18;1.73;;;;;;;;;;5077366;28;20042;-79
2023/03/24 13:10:04;;;;;;;2.90;1.60;;;;;;;;;;5095875;28;20054;-79
2023/03/24 13:12:51;;;;;;;5.57;1.38;;;;;;;;;;5060960;28;20020;-80
2023/03/24 13:15:25;;;;;;;6.57;1.88;;;;;;;;;;5077580;28;20047;-80
2023/03/24 13:18:03;;;;;;;3.67;1.42;;;;;;;;;;5095647;28;20030;-79
2023/03/24 13:20:32;;;;;;;6.32;1.70;;;;;;;;;;5061113;28;20020;-81
2023/03/24 13:23:01;;;;;;;4.75;1.67;;;;;;;;;;5077707;28;20027;-80
2023/03/24 13:25:31;;;;;;;7.35;1.52;;;;;;;;;;5093676;28;20425;-79
2023/03/24 13:27:59;;;;;;;7.00;1.73;;;;;;;;;;5060447;28;20016;-79
2023/03/24 13:30:25;;;;;;;5.45;1.20;;;;;;;;;;5077105;28;20026;-80
2023/03/24 13:33:09;;;;;;;7.15;1.60;;;;;;;;;;5095074;28;20405;-80
2023/03/24 13:35:50;;;;;;;2.80;1.48;;;;;;;;;;5076904;28;20059;-79
2023/03/24 13:38:17;;;;;;;4.68;1.30;;;;;;;;;;5094448;28;20020;-83
2023/03/24 13:40:46;;;;;;;3.55;1.55;;;;;;;;;;5076308;28;20015;-80
2023/03/24 13:43:20;;;;;;;11.48;1.40;;;;;;;;;;5076651;28;20046;-78
2023/03/24 13:45:46;;;;;;;;;;;;;;;;;;5060614;28;20024;-79
2023/03/24 13:48:11;;;;;;;3.55;0.93;;;;;;;;;;5093954;28;19916;-80
2023/03/24 13:50:56;;;;;;;4.70;1.48;;;;;;;;;;5076458;28;20126;-81
2023/03/24 13:53:31;;;;;;;4.82;1.40;;;;;;;;;;5093772;28;20466;-81
2023/03/24 13:55:57;;;;;;;4.28;1.27;;;;;;;;;;5093513;28;20077;-80
2023/03/24 13:58:27;;;;;;;3.83;1.27;;;;;;;;;;5076664;28;20028;-82
2023/03/24 14:01:38;;;;;;;4.32;1.48;;;;;;;;;;5093793;28;20092;-82
2023/03/24 14:04:19;;;;;;;4.28;1.20;;;;;;;;;;5049053;28;20046;-82
2023/03/24 14:06:55;;;;;;;3.97;1.17;;;;;;;;;;5094569;28;20102;-82
2023/03/24 14:09:28;;;;;;;3.25;1.40;;;;;;;;;;5076448;28;20036;-81
2023/03/24 14:12:02;;;;;;;7.15;1.45;;;;;;;;;;5077138;28;20023;-81
2023/03/24 14:14:28;;;;;;;4.45;1.17;;;;;;;;;;5094559;28;20039;-81
2023/03/24 14:17:13;;;;;;;5.50;1.52;;;;;;;;;;5059603;28;20386;-82
2023/03/24 14:19:42;;;;;;;2.13;1.10;;;;;;;;;;5075976;28;20032;-82
2023/03/24 14:22:12;;;;;;;3.90;1.30;;;;;;;;;;5076233;28;20093;-81
2023/03/24 14:24:39;;;;;;;4.07;1.65;;;;;;;;;;5059382;28;20024;-82
2023/03/24 14:27:36;;;;;;;4.40;1.42;;;;;;;;;;5076649;28;20058;-81
2023/03/24 14:30:12;;;;;;;3.55;1.10;;;;;;;;;;5093142;28;20020;-81
2023/03/24 14:32:49;;;;;;;1.73;1.02;;;;;;;;;;5094280;28;20426;-81
2023/03/24 14:35:32;;;;;;;2.05;1.30;;;;;;;;;;5076102;28;20504;-82
2023/03/24 14:38:01;;;;;;;3.28;1.27;;;;;;;;;;5075896;28;20032;-82
2023/03/24 14:40:38;;;;;;;1.17;1.00;;;;;;;;;;5076107;28;20107;-81
2023/03/24 14:43:29;;;;;;;2.83;1.15;;;;;;;;;;5094994;28;20031;-82
2023/03/24 14:46:19;;;;;;;4.22;1.38;;;;;;;;;;5075968;28;20085;-83
2023/03/24 14:49:13;;;;;;;2.95;1.10;;;;;;;;;;5094004;28;20034;-82
2023/03/24 14:51:58;;;;;;;6.25;1.30;;;;;;;;;;5075794;28;20028;-83
2023/03/24 14:54:46;;;;;;;3.55;1.48;;;;;;;;;;5075871;28;20019;-81
2023/03/24 14:57:25;;;;;;;1.77;1.10;;;;;;;;;;5092815;28;20073;-82
2023/03/24 15:00:23;;;;;;;4.45;1.25;;;;;;;;;;5075578;28;20028;-80
2023/03/24 15:02:51;;;;;;;5.38;1.20;;;;;;;;;;5059625;28;20483;-79
2023/03/24 15:05:20;;;;;;;4.47;1.42;;;;;;;;;;5075790;28;20040;-80
2023/03/24 15:08:10;;;;;;;2.05;0.95;;;;;;;;;;5058648;28;20020;-80
2023/03/24 15:10:40;;;;;;;3.75;1.23;;;;;;;;;;5075745;28;20020;-78
2023/03/24 15:13:31;;;;;;;3.15;1.40;;;;;;;;;;5058834;28;20024;-80